Time;durP1;ratioP1;P1;durP2;ratioP2;P2;SDS_P1;SDS_P2;PMS_P1;PMS_P2;Temp;Humidity;BMP_temperature;BMP_pressure;BME280_temperature;BME280_humidity;BME280_pressure;Samples;Min_cycle;Max_cycle;Signal;HPM_P1;HPM_P2
2023/03/01 00:00:49;;;;;;;2.35;0.60;;;;;;;4.96;77.18;101956.31;5003054;28;20553;-54
2023/03/01 00:03:15;;;;;;;0.55;0.32;;;;;;;4.95;77.27;101960.56;4998234;28;20042;-54
2023/03/01 00:05:45;;;;;;;2.80;0.57;;;;;;;4.96;77.13;101962.31;4996378;28;20517;-57
2023/03/01 00:08:11;;;;;;;1.00;0.88;;;;;;;4.97;77.00;101964.06;5001731;28;20096;-49
2023/03/01 00:10:38;;;;;;;2.17;0.77;;;;;;;4.95;76.92;101960.56;4999501;28;20081;-56
2023/03/01 00:13:05;;;;;;;1.80;0.82;;;;;;;4.92;77.12;101965.53;4997243;28;20134;-54
2023/03/01 00:15:32;;;;;;;1.83;0.75;;;;;;;4.92;77.57;101967.19;4997251;28;20046;-53
2023/03/01 00:17:58;;;;;;;1.40;0.40;;;;;;;4.94;77.66;101973.31;5005034;28;20103;-54
2023/03/01 00:20:25;;;;;;;1.35;0.88;;;;;;;4.92;77.35;101965.53;4999428;28;20160;-53
2023/03/01 00:22:51;;;;;;;2.35;0.63;;;;;;;4.92;77.79;101964.63;5001435;28;20310;-56
2023/03/01 00:25:18;;;;;;;2.15;0.57;;;;;;;4.91;77.99;101965.44;4994754;28;20664;-55
2023/03/01 00:27:46;;;;;;;2.42;0.45;;;;;;;4.95;77.99;101969.94;5002076;28;20047;-54
2023/03/01 00:30:14;;;;;;;1.00;0.45;;;;;;;4.96;78.01;101977.72;4997932;28;20494;-49
2023/03/01 00:32:40;;;;;;;2.25;0.50;;;;;;;4.94;77.24;101963.03;4997361;28;20132;-57
2023/03/01 00:35:07;;;;;;;1.92;1.00;;;;;;;4.93;78.13;101964.72;4997630;28;20050;-51
2023/03/01 00:37:34;;;;;;;0.98;0.57;;;;;;;4.94;78.06;101969.06;4995670;28;20137;-52
2023/03/01 00:40:00;;;;;;;3.33;1.13;;;;;;;4.96;78.05;101967.44;5001832;28;20053;-56
2023/03/01 00:42:27;;;;;;;3.03;0.77;;;;;;;4.94;78.42;101968.19;4996975;28;20403;-51
2023/03/01 00:44:53;;;;;;;1.05;0.65;;;;;;;4.95;78.49;101964.78;4999865;28;20473;-51
2023/03/01 00:47:20;;;;;;;2.10;0.50;;;;;;;4.93;78.52;101964.72;5001006;28;20053;-55
2023/03/01 00:49:47;;;;;;;3.70;0.60;;;;;;;4.93;79.14;101966.41;4999492;28;20089;-51
2023/03/01 00:52:13;;;;;;;1.73;0.77;;;;;;;4.92;78.49;101962.97;4992776;28;20049;-51
2023/03/01 00:54:40;;;;;;;0.70;0.70;;;;;;;4.88;78.52;101964.50;4993831;28;20094;-55
2023/03/01 00:57:54;;;;;;;0.80;0.80;;;;;;;4.90;78.11;101962.00;5000009;28;20058;-52
2023/03/01 01:00:20;;;;;;;0.60;0.52;;;;;;;4.93;78.32;101961.28;4987716;28;20053;-55
2023/03/01 01:02:47;;;;;;;3.03;0.47;;;;;;;4.93;78.85;101961.28;4996014;28;20046;-49
2023/03/01 01:05:14;;;;;;;2.20;0.60;;;;;;;4.94;78.31;101957.91;5001477;28;20041;-55
2023/03/01 01:07:41;;;;;;;1.85;1.20;;;;;;;4.95;78.07;101957.09;4999262;28;20046;-53
2023/03/01 01:10:08;;;;;;;0.85;0.45;;;;;;;4.96;78.44;101957.19;4994551;28;20085;-51
2023/03/01 01:12:35;;;;;;;1.10;0.82;;;;;;;4.97;78.51;101950.38;4996716;28;20140;-52
2023/03/01 01:15:01;;;;;;;1.90;0.60;;;;;;;4.97;78.89;101952.94;4998938;28;20073;-52
2023/03/01 01:17:28;;;;;;;1.00;0.70;;;;;;;4.98;78.21;101945.31;5001263;28;20045;-50
2023/03/01 01:19:55;;;;;;;1.10;0.40;;;;;;;4.99;78.96;101943.59;4999401;28;20050;-54
2023/03/01 01:22:21;;;;;;;1.77;0.40;;;;;;;5.02;78.52;101948.91;5001059;28;20092;-55
2023/03/01 01:24:48;;;;;;;1.63;0.55;;;;;;;5.04;78.74;101939.59;5001242;28;20046;-53
2023/03/01 01:27:14;;;;;;;1.33;1.10;;;;;;;5.06;78.68;101937.13;5002551;28;20053;-55
2023/03/01 01:29:41;;;;;;;2.80;0.98;;;;;;;5.06;77.97;101940.53;4994750;28;20588;-51
2023/03/01 01:32:08;;;;;;;1.10;0.70;;;;;;;5.07;78.35;101932.03;4997482;28;20065;-51
2023/03/01 01:34:35;;;;;;;2.72;0.82;;;;;;;5.09;78.77;101938.13;4998620;28;20076;-53
2023/03/01 01:37:02;;;;;;;3.17;0.65;;;;;;;5.09;78.47;101922.72;4993076;28;20050;-53
2023/03/01 01:39:29;;;;;;;2.75;0.85;;;;;;;5.09;78.30;101922.72;4996484;28;20049;-57
2023/03/01 01:41:55;;;;;;;2.25;0.90;;;;;;;5.08;78.90;101920.97;5001671;28;20077;-52
2023/03/01 01:44:26;;;;;;;3.65;0.70;;;;;;;5.04;78.38;101900.19;4999581;28;20081;-53
2023/03/01 01:47:00;;;;;;;1.17;0.80;;;;;;;5.01;78.41;101904.34;4997441;28;20176;-53
2023/03/01 01:57:37;;;;;;;5.53;1.90;;;;;;;4.94;79.46;101906.53;5076132;27;20947;-46
2023/03/01 02:00:10;;;;;;;1.95;1.83;;;;;;;4.89;79.64;101909.75;5027435;28;20060;-53
2023/03/01 02:02:38;;;;;;;3.83;1.05;;;;;;;4.88;79.34;101902.88;5017139;28;20277;-52
2023/03/01 02:05:13;;;;;;;2.35;1.27;;;;;;;4.87;79.09;101901.09;5024748;28;20136;-53
2023/03/01 02:07:41;;;;;;;1.95;1.75;;;;;;;4.89;79.34;101908.88;5037565;28;20045;-47
2023/03/01 02:10:08;;;;;;;5.97;1.38;;;;;;;4.88;78.85;101907.13;5018299;28;20042;-52
2023/03/01 02:12:36;;;;;;;2.95;1.45;;;;;;;4.85;79.63;101897.56;5021249;28;20084;-50
2023/03/01 02:15:02;;;;;;;1.50;1.40;;;;;;;4.84;78.92;101895.81;5026688;28;20049;-51
2023/03/01 02:17:29;;;;;;;2.40;1.30;;;;;;;4.83;79.37;101888.03;5025627;28;20046;-49
2023/03/01 02:22:33;;;;;;;2.75;1.00;;;;;;;5.22;78.30;101882.22;5030492;27;20415;-55
2023/03/01 02:27:47;;;;;;;3.35;2.08;;;;;;;4.92;78.29;101878.22;5049230;27;20402;-52
2023/03/01 02:30:14;;;;;;;2.10;1.73;;;;;;;4.90;78.83;101884.97;5019377;28;20046;-54
2023/03/01 02:32:41;;;;;;;5.90;2.08;;;;;;;4.87;78.26;101885.69;5018787;28;20045;-54
2023/03/01 02:35:12;;;;;;;4.57;2.55;;;;;;;4.87;78.37;101883.13;5018096;28;20555;-54
2023/03/01 02:37:40;;;;;;;2.33;1.85;;;;;;;4.85;78.36;101873.56;5021884;28;20188;-52
2023/03/01 02:40:11;;;;;;;2.72;2.53;;;;;;;4.84;78.54;101874.38;5018774;28;20119;-53
2023/03/01 02:42:48;;;;;;;5.25;2.05;;;;;;;4.80;78.56;101878.47;5019317;28;20054;-53
2023/03/01 02:45:15;;;;;;;2.40;1.23;;;;;;;4.79;78.32;101881.00;5018631;28;20096;-53
2023/03/01 02:47:42;;;;;;;4.65;2.08;;;;;;;4.79;78.37;101876.72;5019596;28;20080;-47
2023/03/01 02:53:15;;;;;;;2.42;0.40;;;;;;;4.75;78.87;101874.78;5019551;27;20402;-52
2023/03/01 02:55:41;;;;;;;2.80;1.30;;;;;;;4.74;78.30;101871.38;4996318;28;20050;-52
2023/03/01 02:58:09;;;;;;;3.20;0.80;;;;;;;4.76;78.34;101866.28;5000364;28;20108;-53
2023/03/01 03:00:39;;;;;;;1.08;0.73;;;;;;;4.74;78.30;101860.22;4993316;28;20115;-48
2023/03/01 03:03:07;;;;;;;1.38;0.65;;;;;;;4.75;78.77;101854.25;4997866;28;20046;-46
2023/03/01 03:05:34;;;;;;;3.15;0.70;;;;;;;4.78;78.46;101856.09;4992724;28;20089;-51
2023/03/01 03:08:03;;;;;;;1.73;1.15;;;;;;;4.76;78.04;101856.91;4995264;28;20046;-53
2023/03/01 03:10:33;;;;;;;2.03;1.38;;;;;;;4.73;78.33;101853.31;4994510;28;20054;-56
2023/03/01 03:13:02;;;;;;;2.20;0.75;;;;;;;4.70;78.33;101848.88;4994019;28;20651;-50
2023/03/01 03:15:29;;;;;;;3.25;0.80;;;;;;;4.70;77.78;101848.03;4993096;28;20096;-49
2023/03/01 03:17:58;;;;;;;3.92;0.40;;;;;;;4.68;77.91;101842.81;4994205;28;20046;-55
2023/03/01 03:20:27;;;;;;;4.13;1.10;;;;;;;4.70;78.52;101830.06;5026228;28;20050;-57
2023/03/01 03:22:58;;;;;;;6.22;0.88;;;;;;;4.73;77.90;101827.66;5021931;28;20421;-54
2023/03/01 03:25:25;;;;;;;3.25;1.02;;;;;;;4.75;78.13;101826.03;4993541;28;20097;-55
2023/03/01 03:27:56;;;;;;;4.95;0.80;;;;;;;4.75;78.36;101834.63;5025486;28;20136;-56
2023/03/01 03:30:28;;;;;;;3.53;0.63;;;;;;;4.78;78.16;101822.72;4996301;28;20053;-57
2023/03/01 03:32:56;;;;;;;4.40;0.55;;;;;;;4.76;77.86;101820.06;4997676;28;20038;-52
2023/03/01 03:35:29;;;;;;;7.20;1.05;;;;;;;4.76;77.86;101814.94;5013005;28;20050;-51
2023/03/01 03:38:03;;;;;;;4.90;1.05;;;;;;;4.77;77.75;101816.72;5013109;28;20441;-51
2023/03/01 03:43:08;;;;;;;4.45;1.80;;;;;;;4.78;78.23;101818.47;5089847;27;20405;-51
2023/03/01 03:45:36;;;;;;;2.38;2.25;;;;;;;4.77;77.59;101816.72;5076041;28;20040;-51
2023/03/01 03:48:04;;;;;;;3.20;2.20;;;;;;;4.74;77.93;101816.56;5082124;28;20043;-49
2023/03/01 03:50:32;;;;;;;5.25;1.55;;;;;;;4.75;78.23;101820.88;5098798;28;20604;-50
2023/03/01 03:53:01;;;;;;;6.20;2.45;;;;;;;4.73;78.24;101812.25;5096593;28;20127;-52
2023/03/01 03:55:30;;;;;;;7.07;1.80;;;;;;;4.70;78.25;101810.38;5090477;28;20127;-57
2023/03/01 03:58:01;;;;;;;5.07;1.88;;;;;;;4.68;77.44;101819.69;5099410;28;20044;-49
2023/03/01 04:00:28;;;;;;;1.73;1.63;;;;;;;4.63;77.87;101809.19;5103514;28;20048;-50
2023/03/01 04:02:56;;;;;;;2.25;2.05;;;;;;;4.63;78.09;101813.47;5100529;27;20048;-51
2023/03/01 04:05:23;;;;;;;2.65;1.30;;;;;;;4.62;78.42;101807.44;5093026;28;20044;-57
2023/03/01 04:08:01;;;;;;;3.15;2.80;;;;;;;4.60;78.11;101819.31;5095761;28;20043;-51
2023/03/01 04:10:29;;;;;;;1.95;1.85;;;;;;;4.61;77.99;101810.81;5093783;28;20048;-46
2023/03/01 04:12:56;;;;;;;4.35;1.42;;;;;;;4.61;78.27;101805.69;5094192;28;20039;-56
2023/03/01 04:15:24;;;;;;;4.07;2.03;;;;;;;4.62;78.17;101812.56;5092870;28;20993;-52
2023/03/01 04:17:52;;;;;;;1.95;1.75;;;;;;;4.66;78.51;101807.59;5095474;28;20047;-51
2023/03/01 04:20:24;;;;;;;1.77;1.67;;;;;;;4.66;78.04;101810.16;5096633;28;20075;-53
2023/03/01 04:22:57;;;;;;;2.70;1.45;;;;;;;4.66;77.91;101802.47;5094372;28;20036;-53
2023/03/01 04:25:24;;;;;;;4.45;2.25;;;;;;;4.69;78.35;101802.63;5095396;28;20169;-52
2023/03/01 04:27:51;;;;;;;2.63;0.22;;;;;;;4.70;77.60;101800.13;5097807;28;20582;-55
2023/03/01 04:30:17;;;;;;;4.25;2.38;;;;;;;4.71;78.33;101798.44;5094726;28;20075;-49
2023/03/01 04:32:44;;;;;;;1.90;1.73;;;;;;;4.71;78.37;101795.88;5095951;28;20495;-51
2023/03/01 04:35:10;;;;;;;2.40;2.15;;;;;;;4.72;77.67;101797.63;5095480;28;20043;-53
2023/03/01 04:37:37;;;;;;;5.03;2.33;;;;;;;4.74;78.39;101791.78;5095844;28;20105;-55
2023/03/01 04:40:12;;;;;;;2.03;1.90;;;;;;;4.74;77.87;101796.03;5099774;28;20082;-52
2023/03/01 04:42:39;;;;;;;2.53;1.67;;;;;;;4.73;78.56;101794.28;5097793;28;20055;-56
2023/03/01 04:45:12;;;;;;;9.50;2.38;;;;;;;4.75;78.30;101793.53;5098734;28;20122;-50
2023/03/01 04:47:41;;;;;;;2.38;1.73;;;;;;;4.74;78.00;101785.75;5094821;28;20052;-50
2023/03/01 04:50:09;;;;;;;3.88;2.50;;;;;;;4.76;78.42;101781.56;5098087;28;20040;-50
2023/03/01 04:52:35;;;;;;;2.40;1.27;;;;;;;4.77;78.21;101785.91;5089885;28;20063;-57
2023/03/01 04:55:03;;;;;;;3.05;2.13;;;;;;;4.78;78.01;101776.50;5082867;28;20097;-55
2023/03/01 04:57:30;;;;;;;6.68;2.70;;;;;;;4.79;77.99;101776.59;5082111;28;20068;-57
2023/03/01 04:59:57;;;;;;;2.25;1.67;;;;;;;4.77;77.85;101767.94;5084109;28;20105;-55
2023/03/01 05:02:24;;;;;;;2.15;1.67;;;;;;;4.79;78.27;101768.88;5085906;28;20048;-51
2023/03/01 05:04:51;;;;;;;1.48;1.25;;;;;;;4.76;78.55;101763.59;5082516;28;20513;-49
2023/03/01 05:07:19;;;;;;;4.63;1.95;;;;;;;4.75;78.30;101762.72;5085686;28;20071;-52
2023/03/01 05:09:46;;;;;;;2.60;2.40;;;;;;;4.76;78.57;101763.59;5082701;28;20074;-55
2023/03/01 05:12:14;;;;;;;2.00;1.80;;;;;;;4.79;78.59;101768.88;5082942;28;20075;-51
2023/03/01 05:14:41;;;;;;;3.47;1.58;;;;;;;4.80;78.25;101765.50;5084514;28;20436;-57
2023/03/01 05:17:08;;;;;;;1.95;1.60;;;;;;;4.78;78.32;101762.00;5085670;28;20079;-52
2023/03/01 05:19:34;;;;;;;2.88;2.40;;;;;;;4.80;78.46;101765.50;5081567;28;20076;-50
2023/03/01 05:22:01;;;;;;;6.35;1.98;;;;;;;4.78;78.66;101767.13;5087112;28;20068;-52
2023/03/01 05:24:30;;;;;;;3.50;2.00;;;;;;;4.83;78.07;101770.78;5082396;28;20052;-57
2023/03/01 05:26:57;;;;;;;4.30;1.58;;;;;;;4.83;78.53;101773.38;5080336;28;20048;-54
2023/03/01 05:29:25;;;;;;;2.72;2.08;;;;;;;4.82;78.70;101763.91;5079914;28;20056;-52
2023/03/01 05:31:53;;;;;;;2.92;1.90;;;;;;;4.86;78.63;101764.91;5077076;28;20064;-57
2023/03/01 05:34:31;;;;;;;4.15;2.13;;;;;;;4.80;77.82;101755.22;5080201;28;20101;-56
2023/03/01 05:36:59;;;;;;;2.65;1.98;;;;;;;4.83;78.67;101754.53;5081268;28;20082;-54
2023/03/01 05:39:27;;;;;;;6.68;2.58;;;;;;;4.80;78.69;101755.22;5085311;28;20576;-54
2023/03/01 05:41:55;;;;;;;2.22;2.03;;;;;;;4.80;78.32;101750.09;5076684;28;20123;-53
2023/03/01 05:44:22;;;;;;;5.20;2.50;;;;;;;4.80;78.50;101750.09;5081034;28;20101;-53
2023/03/01 05:46:50;;;;;;;3.40;1.75;;;;;;;4.81;78.31;101746.75;5087822;28;20102;-56
2023/03/01 05:49:17;;;;;;;2.00;1.55;;;;;;;4.80;78.16;101747.53;5089079;28;20124;-47
2023/03/01 05:51:48;;;;;;;6.25;1.95;;;;;;;4.79;77.95;101743.22;5082807;28;20090;-56
2023/03/01 05:54:16;;;;;;;2.88;0.73;;;;;;;4.80;78.61;101744.97;5084400;28;20567;-51
2023/03/01 05:56:43;;;;;;;2.17;2.00;;;;;;;4.79;78.85;101748.34;5080405;28;20040;-55
2023/03/01 05:59:10;;;;;;;2.53;2.33;;;;;;;4.80;78.68;101750.09;5068689;28;20094;-52
2023/03/01 06:01:36;;;;;;;4.95;2.25;;;;;;;4.83;78.42;101749.41;5082159;28;20075;-56
2023/03/01 06:04:04;;;;;;;6.40;2.15;;;;;;;4.83;78.15;101750.25;5083668;28;20143;-53
2023/03/01 06:06:35;;;;;;;5.78;2.17;;;;;;;4.84;78.31;101749.47;5077696;28;20072;-51
2023/03/01 06:09:01;;;;;;;2.08;1.83;;;;;;;4.83;78.42;101745.13;5084667;28;20068;-55
2023/03/01 06:11:28;;;;;;;3.42;2.13;;;;;;;4.83;77.96;101747.69;5084088;28;20093;-50
2023/03/01 06:13:54;;;;;;;3.08;2.22;;;;;;;4.83;78.57;101745.13;5076877;28;20044;-50
2023/03/01 06:16:21;;;;;;;2.55;2.15;;;;;;;4.82;78.47;101745.94;5081342;28;20064;-53
2023/03/01 06:18:47;;;;;;;2.13;1.85;;;;;;;4.84;78.84;101746.91;5082454;28;20084;-51
2023/03/01 06:21:14;;;;;;;2.85;1.77;;;;;;;4.85;77.96;101748.66;5081166;28;20081;-56
2023/03/01 06:23:40;;;;;;;1.23;0.50;;;;;;;4.82;78.24;101753.63;5084897;28;20454;-52
2023/03/01 06:26:08;;;;;;;2.15;1.95;;;;;;;4.80;78.28;101750.09;5085023;28;20044;-49
2023/03/01 06:28:35;;;;;;;2.63;1.88;;;;;;;4.81;77.98;101754.44;5082494;28;20050;-50
2023/03/01 06:31:02;;;;;;;3.20;2.75;;;;;;;4.80;78.51;101762.94;5068644;28;20134;-51
2023/03/01 06:33:29;;;;;;;2.00;1.75;;;;;;;4.79;78.60;101756.03;5094197;27;20062;-52
2023/03/01 06:35:56;;;;;;;3.05;1.83;;;;;;;4.79;78.22;101763.75;5084328;28;20125;-54
2023/03/01 06:38:24;;;;;;;2.72;1.95;;;;;;;4.79;78.12;101763.75;5081949;28;20479;-52
2023/03/01 06:40:54;;;;;;;5.55;1.77;;;;;;;4.79;78.59;101757.75;5083832;28;20056;-49
2023/03/01 06:43:21;;;;;;;3.55;1.73;;;;;;;4.80;78.49;101762.06;5077569;28;20108;-55
2023/03/01 06:45:47;;;;;;;1.80;1.63;;;;;;;4.80;78.96;101752.66;5099660;27;20052;-50
2023/03/01 06:48:14;;;;;;;3.25;2.28;;;;;;;4.79;78.58;101763.75;5085475;28;20048;-51
2023/03/01 06:50:41;;;;;;;2.42;1.83;;;;;;;4.78;78.78;101767.13;5079069;28;20066;-51
2023/03/01 06:53:07;;;;;;;5.32;1.95;;;;;;;4.76;78.61;101758.47;5074077;28;20127;-57
2023/03/01 06:55:34;;;;;;;1.48;1.38;;;;;;;4.76;79.25;101764.47;5079199;28;20048;-53
2023/03/01 06:58:02;;;;;;;1.98;1.35;;;;;;;4.69;78.71;101762.41;5081682;28;20044;-55
2023/03/01 07:00:29;;;;;;;4.70;1.65;;;;;;;4.71;78.31;101765.06;5083020;28;20044;-50
2023/03/01 07:02:58;;;;;;;3.05;2.10;;;;;;;4.73;78.20;101769.47;5080544;28;20078;-51
2023/03/01 07:05:25;;;;;;;1.90;1.73;;;;;;;4.75;78.88;101765.31;5080886;28;20075;-55
2023/03/01 07:07:53;;;;;;;2.28;2.15;;;;;;;4.76;78.46;101758.47;5070142;28;20052;-55
2023/03/01 07:10:20;;;;;;;2.60;1.95;;;;;;;4.74;78.39;101757.53;5076521;28;20105;-48
2023/03/01 07:12:46;;;;;;;2.35;2.05;;;;;;;4.77;78.69;101765.38;5085192;28;20048;-56
2023/03/01 07:15:14;;;;;;;1.77;1.67;;;;;;;4.79;78.85;101753.47;5082259;28;20044;-49
2023/03/01 07:17:41;;;;;;;3.38;1.45;;;;;;;4.82;78.66;101770.72;5090214;28;20515;-51
2023/03/01 07:20:08;;;;;;;3.22;2.35;;;;;;;4.84;78.40;101758.84;5083792;28;20044;-47
2023/03/01 07:22:35;;;;;;;4.03;1.77;;;;;;;4.86;78.75;101755.53;5085112;28;20078;-57
2023/03/01 07:25:02;;;;;;;1.85;1.25;;;;;;;4.87;78.27;101757.28;5077168;28;20040;-53
2023/03/01 07:27:28;;;;;;;3.88;3.00;;;;;;;4.89;78.51;101759.94;5085123;28;20065;-54
2023/03/01 07:29:55;;;;;;;2.13;1.70;;;;;;;4.92;78.86;101754.06;5081782;28;20109;-52
2023/03/01 07:32:22;;;;;;;5.53;2.03;;;;;;;4.94;78.48;101752.47;5084255;28;20093;-56
2023/03/01 07:34:48;;;;;;;1.75;1.20;;;;;;;4.97;78.15;101750.06;5073445;28;20390;-56
2023/03/01 07:37:15;;;;;;;5.18;1.85;;;;;;;4.98;78.07;101749.25;5079747;28;20044;-53
2023/03/01 07:39:42;;;;;;;2.95;2.75;;;;;;;4.95;78.74;101749.09;5078069;28;20059;-50
2023/03/01 07:42:09;;;;;;;4.97;0.95;;;;;;;4.98;78.26;101754.38;5075902;28;21907;-56
2023/03/01 07:44:35;;;;;;;3.78;2.45;;;;;;;4.97;78.48;101762.91;5078045;28;20671;-50
2023/03/01 07:47:04;;;;;;;1.65;0.50;;;;;;;4.95;78.95;101755.13;5078404;28;20736;-53
2023/03/01 07:49:30;;;;;;;4.40;2.20;;;;;;;4.98;78.60;101769.78;5076186;28;20059;-55
2023/03/01 07:51:57;;;;;;;3.17;1.88;;;;;;;4.99;78.67;101768.97;5074409;28;20130;-51
2023/03/01 07:54:24;;;;;;;2.65;1.98;;;;;;;5.03;78.37;101773.44;5074602;28;20615;-52
2023/03/01 07:56:50;;;;;;;2.05;1.42;;;;;;;5.06;78.34;101773.59;5077110;28;20400;-54
2023/03/01 07:59:17;;;;;;;3.05;2.22;;;;;;;5.09;78.34;101772.84;5078336;28;20056;-55
2023/03/01 08:01:44;;;;;;;3.92;2.60;;;;;;;5.11;78.37;101769.59;5077423;28;20554;-57
2023/03/01 08:04:10;;;;;;;3.15;2.83;;;;;;;5.16;78.23;101769.78;5077690;28;20482;-50
2023/03/01 08:06:37;;;;;;;4.40;0.75;;;;;;;5.21;78.32;101767.44;5075209;28;20441;-54
2023/03/01 08:09:04;;;;;;;3.28;2.55;;;;;;;5.25;78.57;101772.78;5080215;28;20347;-53
2023/03/01 08:11:30;;;;;;;5.55;3.25;;;;;;;5.29;78.63;101781.50;5076532;28;20044;-55
2023/03/01 08:13:57;;;;;;;6.45;2.33;;;;;;;5.29;78.59;101773.81;5076266;28;20048;-57
2023/03/01 08:16:24;;;;;;;9.15;2.67;;;;;;;5.26;79.35;101777.13;5076227;28;20144;-57
2023/03/01 08:18:50;;;;;;;4.15;2.92;;;;;;;5.28;77.90;101787.47;5079516;28;20060;-52
2023/03/01 08:21:17;;;;;;;4.05;2.55;;;;;;;5.26;79.12;101786.50;5076012;28;20068;-52
2023/03/01 08:23:44;;;;;;;6.68;3.47;;;;;;;5.30;79.38;101790.97;5076171;28;20037;-54
2023/03/01 08:28:49;;;;;;;4.30;1.50;;;;;;;5.31;78.78;101792.75;5000198;28;20738;-58
2023/03/01 08:31:20;;;;;;;6.22;1.80;;;;;;;5.32;79.02;101786.81;4997756;28;20054;-50
2023/03/01 08:33:54;;;;;;;5.15;1.63;;;;;;;5.37;78.92;101779.31;4997253;28;20037;-55
2023/03/01 08:36:23;;;;;;;5.13;1.85;;;;;;;5.43;79.02;101779.59;4998707;28;20053;-50
2023/03/01 08:38:50;;;;;;;9.02;2.20;;;;;;;5.49;78.29;101768.72;5003098;28;20054;-59
2023/03/01 08:41:17;;;;;;;6.55;1.77;;;;;;;5.55;78.04;101763.88;5003669;28;20054;-49
2023/03/01 08:43:44;;;;;;;5.07;1.90;;;;;;;5.62;78.30;101763.34;5000161;28;20046;-53
2023/03/01 08:46:11;;;;;;;6.43;2.30;;;;;;;5.79;77.76;101773.50;4997789;28;20061;-55
2023/03/01 08:48:38;;;;;;;5.63;1.73;;;;;;;5.94;78.64;101772.41;5001958;28;20577;-52
2023/03/01 08:53:46;;;;;;;7.32;2.10;;;;;;;6.06;77.95;101761.81;5080573;27;20374;-54
2023/03/01 08:56:14;;;;;;;11.98;2.58;;;;;;;6.04;76.65;101759.16;5029907;28;20050;-51
2023/03/01 08:58:44;;;;;;;4.90;1.77;;;;;;;6.05;77.68;101753.22;5007695;28;20108;-55
2023/03/01 09:01:13;;;;;;;5.70;2.08;;;;;;;5.98;77.42;101752.03;5019703;28;20123;-48
2023/03/01 09:03:39;;;;;;;4.72;1.95;;;;;;;5.98;76.91;101752.03;5011936;28;20070;-53
2023/03/01 09:06:07;;;;;;;6.15;2.25;;;;;;;5.94;76.85;101749.28;5013276;28;20065;-54
2023/03/01 09:08:35;;;;;;;7.30;2.85;;;;;;;5.90;77.93;101746.56;5020062;28;20056;-51
2023/03/01 09:11:04;;;;;;;4.35;1.63;;;;;;;5.91;78.59;101757.72;5018190;28;20081;-57
2023/03/01 09:13:31;;;;;;;4.97;2.33;;;;;;;5.93;77.80;101756.09;5017478;28;20050;-52
2023/03/01 09:15:58;;;;;;;3.05;1.33;;;;;;;5.88;78.25;101737.88;5017420;28;20076;-54
2023/03/01 09:18:25;;;;;;;4.70;2.33;;;;;;;5.95;78.34;101743.31;5048816;28;20042;-53
2023/03/01 09:20:51;;;;;;;6.63;2.13;;;;;;;6.04;77.99;101743.72;5011109;28;20130;-58
2023/03/01 09:23:18;;;;;;;6.10;1.90;;;;;;;6.12;77.75;101737.22;5013893;28;20123;-52
2023/03/01 09:25:45;;;;;;;4.05;2.03;;;;;;;6.25;78.36;101733.47;5011194;28;20337;-53
2023/03/01 09:28:11;;;;;;;3.92;1.77;;;;;;;6.55;78.73;101724.38;5018434;28;20077;-50
2023/03/01 09:30:58;;;;;;;4.30;1.70;;;;;;;6.59;76.82;101723.72;5014850;28;20133;-52
2023/03/01 09:33:25;;;;;;;2.50;1.30;;;;;;;6.58;76.38;101732.25;5010372;28;20121;-53
2023/03/01 09:36:01;;;;;;;4.07;1.42;;;;;;;6.56;76.54;101733.91;5014070;28;20084;-51
2023/03/01 09:38:28;;;;;;;3.85;1.80;;;;;;;6.56;78.15;101731.31;5014304;28;20049;-48
2023/03/01 09:40:56;;;;;;;3.88;1.30;;;;;;;6.65;77.90;101723.97;5018287;28;20050;-59
2023/03/01 09:43:35;;;;;;;8.15;1.70;;;;;;;7.05;77.61;101721.19;5019638;28;20073;-55
2023/03/01 09:46:06;;;;;;;2.78;1.25;;;;;;;7.15;77.03;101720.75;5047492;28;20045;-56
2023/03/01 09:48:42;;;;;;;3.63;1.60;;;;;;;7.18;75.61;101717.41;5053912;28;20107;-55
2023/03/01 09:51:17;;;;;;;6.43;1.90;;;;;;;7.26;76.64;101716.00;5036724;28;20072;-52
2023/03/01 09:53:44;;;;;;;6.72;1.75;;;;;;;7.34;76.29;101711.13;5034132;28;20752;-57
2023/03/01 09:56:24;;;;;;;7.07;1.85;;;;;;;7.39;76.26;101714.75;5031858;28;20053;-56
2023/03/01 10:06:58;;;;;;;2.85;1.83;;;;;;;7.50;76.58;101701.41;5039763;28;20412;-58
2023/03/01 10:09:25;;;;;;;4.07;1.90;;;;;;;7.56;76.31;101696.44;4998239;28;20112;-55
2023/03/01 10:11:54;;;;;;;4.40;2.45;;;;;;;7.71;76.35;101694.41;5000927;28;20077;-52
2023/03/01 10:14:35;;;;;;;4.43;1.88;;;;;;;7.78;76.17;101692.06;5008871;28;20251;-55
2023/03/01 10:19:43;;;;;;;3.80;1.25;;;;;;;7.77;75.00;101685.16;5015147;27;20416;-57
2023/03/01 10:24:54;;;;;;;5.53;1.33;;;;;;;7.68;74.89;101686.59;5029562;28;20770;-56
2023/03/01 10:32:34;;;;;;;4.78;1.27;;;;;;;8.46;75.24;101672.81;5097763;27;20401;-51
2023/03/01 10:35:01;;;;;;;5.95;1.60;;;;;;;9.35;74.62;101670.31;5014440;28;20498;-55
2023/03/01 10:37:28;;;;;;;4.20;1.20;;;;;;;10.13;73.88;101659.44;5018896;28;20080;-54
2023/03/01 10:42:39;;;;;;;2.67;1.38;;;;;;;10.10;69.96;101664.56;5056744;27;20407;-51
2023/03/01 10:48:13;;;;;;;2.80;0.73;;;;;;;9.33;70.35;101669.41;5051463;27;20384;-56
2023/03/01 10:50:42;;;;;;;3.15;0.80;;;;;;;9.07;71.17;101674.69;4978177;28;20577;-51
2023/03/01 10:53:24;;;;;;;2.88;1.05;;;;;;;8.76;71.13;101666.91;4975000;28;20098;-54
2023/03/01 10:58:38;;;;;;;2.35;1.05;;;;;;;8.47;71.55;101665.13;5007455;28;20411;-51
2023/03/01 11:06:41;;;;;;;4.25;1.55;;;;;;;8.32;71.98;101657.78;5036965;27;21394;-56
2023/03/01 11:09:27;;;;;;;3.72;1.90;;;;;;;8.19;71.48;101648.75;5000705;28;20065;-47
2023/03/01 11:11:56;;;;;;;3.63;2.10;;;;;;;8.22;71.79;101654.00;5009311;28;20046;-54
2023/03/01 11:14:26;;;;;;;5.45;2.35;;;;;;;8.13;71.40;101643.38;4998811;28;20042;-54
2023/03/01 11:17:16;;;;;;;4.05;1.02;;;;;;;8.10;72.12;101649.31;4997409;28;20406;-57
2023/03/01 11:20:00;;;;;;;3.10;2.13;;;;;;;8.06;71.42;101641.41;4999448;28;20509;-53
2023/03/01 11:22:29;;;;;;;2.38;2.05;;;;;;;7.99;72.32;101653.22;4999482;28;20073;-56
2023/03/01 11:24:58;;;;;;;3.10;1.60;;;;;;;7.86;71.76;101648.50;5000165;28;20046;-48
2023/03/01 11:27:42;;;;;;;3.00;2.42;;;;;;;7.78;72.30;101648.22;5000515;28;20060;-52
2023/03/01 11:30:21;;;;;;;2.55;1.77;;;;;;;7.67;72.31;101646.13;5000391;28;20053;-56
2023/03/01 11:33:00;;;;;;;1.98;1.70;;;;;;;7.55;72.60;101648.28;4999945;28;20071;-52
2023/03/01 11:35:29;;;;;;;2.60;1.55;;;;;;;7.63;72.84;101639.09;5000776;28;20141;-57
2023/03/01 11:38:23;;;;;;;2.80;2.60;;;;;;;7.69;72.81;101636.75;4998403;28;20057;-55
2023/03/01 11:40:58;;;;;;;4.55;2.05;;;;;;;7.84;73.54;101633.81;4996823;28;20486;-51
2023/03/01 11:55:16;;;;;;;1.02;0.90;;;;;;;7.94;72.88;101616.09;5035810;27;20766;-56
2023/03/01 12:22:40;;;;;;;5.30;1.08;;;;;;;7.93;73.70;101584.25;5011895;27;20500;-55
2023/03/01 12:33:51;;;;;;;5.82;1.30;;;;;;;7.96;72.94;101558.53;5066677;27;20394;-56
2023/03/01 12:36:44;;;;;;;1.73;1.63;;;;;;;8.06;72.74;101545.94;5007659;28;20497;-55
2023/03/01 12:39:31;;;;;;;1.42;1.27;;;;;;;8.08;73.04;101541.69;5020940;28;20536;-50
2023/03/01 12:48:41;;;;;;;2.10;0.82;;;;;;;8.47;73.45;101536.00;5040634;28;20899;-52
2023/03/01 12:51:13;;;;;;;2.22;1.20;;;;;;;8.44;73.14;101525.59;5001599;28;20101;-51
2023/03/01 12:53:46;;;;;;;2.25;0.35;;;;;;;8.51;72.57;101515.44;4984341;28;20529;-52
2023/03/01 12:56:18;;;;;;;2.75;1.83;;;;;;;8.60;72.89;101519.22;4983752;28;20066;-53
2023/03/01 13:12:45;;;;;;;3.17;0.93;;;;;;;8.74;70.71;101488.59;5047461;28;20388;-51
2023/03/01 13:21:01;;;;;;;4.03;0.70;;;;;;;8.72;70.89;101469.59;5089256;27;20387;-53
2023/03/01 13:23:33;;;;;;;2.42;0.82;;;;;;;8.72;70.42;101464.41;5056035;28;20091;-53
2023/03/01 13:33:59;;;;;;;4.15;0.90;;;;;;;8.61;70.52;101450.34;5049805;27;20409;-54
2023/03/01 13:39:32;;;;;;;2.40;1.70;;;;;;;8.43;70.06;101455.81;5033962;28;20404;-53
2023/03/01 13:42:00;;;;;;;3.97;1.80;;;;;;;8.42;70.56;101444.63;4998428;28;20053;-54
2023/03/01 13:44:33;;;;;;;2.65;2.20;;;;;;;8.39;70.10;101449.72;4998344;28;20046;-53
2023/03/01 13:49:51;;;;;;;5.97;1.02;;;;;;;8.62;71.81;101449.53;5025744;27;20419;-52
2023/03/01 13:55:05;;;;;;;1.77;1.00;;;;;;;8.70;70.88;101434.22;5021961;27;20422;-53
2023/03/01 13:57:34;;;;;;;;;;;;;;;8.68;71.24;101434.19;5009801;28;20100;-54
2023/03/01 14:00:04;;;;;;;3.28;0.68;;;;;;;8.76;70.72;101429.22;5007112;28;19937;-52
2023/03/01 14:02:31;;;;;;;2.63;1.20;;;;;;;8.71;69.90;101430.78;5007927;28;20132;-54
2023/03/01 14:05:00;;;;;;;6.30;1.48;;;;;;;8.70;70.02;101423.88;5002855;28;20057;-57
2023/03/01 14:07:29;;;;;;;3.42;1.48;;;;;;;8.66;70.20;101414.31;4997535;28;20093;-54